sensor_id;sensor_type;location;lat;lon;timestamp;pressure;altitude;pressure_sealevel;temperature;humidity
65546;BME280;52177;55.968;37.498;2023-02-04T00:00:18;99175.97;;;0.09;79.38
65546;BME280;52177;55.968;37.498;2023-02-04T00:00:48;99174.19;;;0.10;79.49
65546;BME280;52177;55.968;37.498;2023-02-04T00:01:19;99164.53;;;0.10;79.41
65546;BME280;52177;55.968;37.498;2023-02-04T00:01:49;99172.41;;;0.10;79.46
65546;BME280;52177;55.968;37.498;2023-02-04T00:02:19;99165.47;;;0.09;79.33
65546;BME280;52177;55.968;37.498;2023-02-04T00:02:50;99167.28;;;0.09;79.31
65546;BME280;52177;55.968;37.498;2023-02-04T00:03:20;99173.34;;;0.09;79.40
65546;BME280;52177;55.968;37.498;2023-02-04T00:03:50;99171.56;;;0.10;79.43
65546;BME280;52177;55.968;37.498;2023-02-04T00:04:21;99165.47;;;0.09;79.38
65546;BME280;52177;55.968;37.498;2023-02-04T00:04:51;99172.50;;;0.09;79.25
65546;BME280;52177;55.968;37.498;2023-02-04T00:05:22;99169.91;;;0.09;79.25
65546;BME280;52177;55.968;37.498;2023-02-04T00:05:52;99168.25;;;0.08;79.24
65546;BME280;52177;55.968;37.498;2023-02-04T00:06:22;99171.69;;;0.08;79.31
65546;BME280;52177;55.968;37.498;2023-02-04T00:06:53;99173.59;;;0.06;79.24
65546;BME280;52177;55.968;37.498;2023-02-04T00:07:23;99173.72;;;0.05;79.20
65546;BME280;52177;55.968;37.498;2023-02-04T00:07:53;99169.56;;;0.02;79.13
65546;BME280;52177;55.968;37.498;2023-02-04T00:08:24;99169.69;;;0.01;79.16
65546;BME280;52177;55.968;37.498;2023-02-04T00:08:54;99173.13;;;0.01;79.15
65546;BME280;52177;55.968;37.498;2023-02-04T00:09:25;99178.50;;;-0.01;79.21
65546;BME280;52177;55.968;37.498;2023-02-04T00:09:55;99168.16;;;-0.02;79.21
65546;BME280;52177;55.968;37.498;2023-02-04T00:10:25;99170.88;;;-0.04;79.32
65546;BME280;52177;55.968;37.498;2023-02-04T00:10:55;99170.88;;;-0.04;79.25
65546;BME280;52177;55.968;37.498;2023-02-04T00:11:26;99174.47;;;-0.05;79.36
65546;BME280;52177;55.968;37.498;2023-02-04T00:11:56;99173.50;;;-0.04;79.33
65546;BME280;52177;55.968;37.498;2023-02-04T00:12:26;99172.69;;;-0.04;79.40
65546;BME280;52177;55.968;37.498;2023-02-04T00:12:57;99172.53;;;-0.03;79.44
65546;BME280;52177;55.968;37.498;2023-02-04T00:13:27;99176.00;;;-0.02;79.52
65546;BME280;52177;55.968;37.498;2023-02-04T00:13:57;99170.78;;;-0.02;79.41
65546;BME280;52177;55.968;37.498;2023-02-04T00:14:28;99171.59;;;-0.02;79.42
65546;BME280;52177;55.968;37.498;2023-02-04T00:14:58;99171.72;;;-0.03;79.31
65546;BME280;52177;55.968;37.498;2023-02-04T00:15:29;99176.13;;;-0.04;79.30
65546;BME280;52177;55.968;37.498;2023-02-04T00:15:59;99176.13;;;-0.04;79.35
65546;BME280;52177;55.968;37.498;2023-02-04T00:16:29;99178.75;;;-0.04;79.34
65546;BME280;52177;55.968;37.498;2023-02-04T00:17:00;99177.91;;;-0.04;79.45
65546;BME280;52177;55.968;37.498;2023-02-04T00:17:30;99175.41;;;-0.06;79.45
65546;BME280;52177;55.968;37.498;2023-02-04T00:18:00;99179.00;;;-0.07;79.48
65546;BME280;52177;55.968;37.498;2023-02-04T00:18:31;99173.63;;;-0.05;79.52
65546;BME280;52177;55.968;37.498;2023-02-04T00:19:01;99177.91;;;-0.04;79.54
65546;BME280;52177;55.968;37.498;2023-02-04T00:19:32;99176.13;;;-0.04;79.59
65546;BME280;52177;55.968;37.498;2023-02-04T00:20:02;99176.22;;;-0.05;79.52
65546;BME280;52177;55.968;37.498;2023-02-04T00:20:33;99177.91;;;-0.04;79.64
65546;BME280;52177;55.968;37.498;2023-02-04T00:21:04;99178.75;;;-0.04;79.59
65546;BME280;52177;55.968;37.498;2023-02-04T00:21:34;99172.78;;;-0.06;79.68
65546;BME280;52177;55.968;37.498;2023-02-04T00:22:05;99184.94;;;-0.05;79.59
65546;BME280;52177;55.968;37.498;2023-02-04T00:22:36;99174.47;;;-0.05;79.72
65546;BME280;52177;55.968;37.498;2023-02-04T00:23:07;99184.22;;;-0.07;79.59
65546;BME280;52177;55.968;37.498;2023-02-04T00:23:37;99181.63;;;-0.07;79.57
65546;BME280;52177;55.968;37.498;2023-02-04T00:24:08;99177.31;;;-0.08;79.62
65546;BME280;52177;55.968;37.498;2023-02-04T00:24:39;99184.34;;;-0.08;79.71
65546;BME280;52177;55.968;37.498;2023-02-04T00:25:10;99182.56;;;-0.08;79.76
65546;BME280;52177;55.968;37.498;2023-02-04T00:25:40;99180.06;;;-0.09;79.67
65546;BME280;52177;55.968;37.498;2023-02-04T00:26:12;99180.06;;;-0.09;79.71
65546;BME280;52177;55.968;37.498;2023-02-04T00:26:42;99183.53;;;-0.09;79.65
65546;BME280;52177;55.968;37.498;2023-02-04T00:27:13;99183.53;;;-0.09;79.66
65546;BME280;52177;55.968;37.498;2023-02-04T00:27:43;99186.13;;;-0.09;79.63
65546;BME280;52177;55.968;37.498;2023-02-04T00:28:13;99192.22;;;-0.08;79.68
65546;BME280;52177;55.968;37.498;2023-02-04T00:28:44;99187.94;;;-0.09;79.73
65546;BME280;52177;55.968;37.498;2023-02-04T00:29:14;99188.75;;;-0.09;79.76
65546;BME280;52177;55.968;37.498;2023-02-04T00:29:44;99186.97;;;-0.08;79.71
65546;BME280;52177;55.968;37.498;2023-02-04T00:30:15;99181.72;;;-0.08;79.80
65546;BME280;52177;55.968;37.498;2023-02-04T00:30:45;99184.47;;;-0.10;79.73
65546;BME280;52177;55.968;37.498;2023-02-04T00:31:16;99185.16;;;-0.08;79.72
65546;BME280;52177;55.968;37.498;2023-02-04T00:31:46;99187.78;;;-0.08;79.82
65546;BME280;52177;55.968;37.498;2023-02-04T00:32:17;99186.00;;;-0.07;79.86
65546;BME280;52177;55.968;37.498;2023-02-04T00:32:47;99188.63;;;-0.07;79.80
65546;BME280;52177;55.968;37.498;2023-02-04T00:33:17;99189.59;;;-0.08;79.67
65546;BME280;52177;55.968;37.498;2023-02-04T00:33:48;99194.09;;;-0.10;79.55
65546;BME280;52177;55.968;37.498;2023-02-04T00:34:18;99182.81;;;-0.11;79.63
65546;BME280;52177;55.968;37.498;2023-02-04T00:34:48;99191.59;;;-0.12;79.60
65546;BME280;52177;55.968;37.498;2023-02-04T00:35:19;99191.59;;;-0.12;79.65
65546;BME280;52177;55.968;37.498;2023-02-04T00:35:50;99186.34;;;-0.12;79.62
65546;BME280;52177;55.968;37.498;2023-02-04T00:36:21;99189.13;;;-0.13;79.70
65546;BME280;52177;55.968;37.498;2023-02-04T00:36:51;99191.59;;;-0.12;79.71
65546;BME280;52177;55.968;37.498;2023-02-04T00:37:22;99193.41;;;-0.12;79.59
65546;BME280;52177;55.968;37.498;2023-02-04T00:37:52;99196.00;;;-0.12;79.72
65546;BME280;52177;55.968;37.498;2023-02-04T00:38:22;99193.53;;;-0.14;79.63
65546;BME280;52177;55.968;37.498;2023-02-04T00:38:53;99190.78;;;-0.12;79.82
65546;BME280;52177;55.968;37.498;2023-02-04T00:39:23;99194.38;;;-0.13;79.85
65546;BME280;52177;55.968;37.498;2023-02-04T00:39:53;99192.47;;;-0.11;79.80
65546;BME280;52177;55.968;37.498;2023-02-04T00:40:24;99192.56;;;-0.13;79.77
65546;BME280;52177;55.968;37.498;2023-02-04T00:40:54;99192.47;;;-0.11;79.89
65546;BME280;52177;55.968;37.498;2023-02-04T00:41:24;99200.19;;;-0.10;79.61
65546;BME280;52177;55.968;37.498;2023-02-04T00:41:55;99197.56;;;-0.10;79.68
65546;BME280;52177;55.968;37.498;2023-02-04T00:42:26;99196.72;;;-0.10;79.66
65546;BME280;52177;55.968;37.498;2023-02-04T00:42:56;99198.41;;;-0.09;79.67
65546;BME280;52177;55.968;37.498;2023-02-04T00:43:26;99190.41;;;-0.08;79.65
65546;BME280;52177;55.968;37.498;2023-02-04T00:43:57;99195.66;;;-0.08;79.72
65546;BME280;52177;55.968;37.498;2023-02-04T00:44:27;99198.16;;;-0.06;79.65
65546;BME280;52177;55.968;37.498;2023-02-04T00:44:57;99197.19;;;-0.05;79.64
65546;BME280;52177;55.968;37.498;2023-02-04T00:45:28;99193.63;;;-0.04;79.83
65546;BME280;52177;55.968;37.498;2023-02-04T00:45:58;99201.34;;;-0.03;79.57
65546;BME280;52177;55.968;37.498;2023-02-04T00:46:28;99193.63;;;-0.04;79.62
65546;BME280;52177;55.968;37.498;2023-02-04T00:46:59;99199.59;;;-0.02;79.63
65546;BME280;52177;55.968;37.498;2023-02-04T00:47:29;99208.28;;;-0.02;79.67
65546;BME280;52177;55.968;37.498;2023-02-04T00:47:59;99192.56;;;-0.02;79.70
65546;BME280;52177;55.968;37.498;2023-02-04T00:48:30;99198.63;;;-0.01;79.66
65546;BME280;52177;55.968;37.498;2023-02-04T00:49:00;99196.84;;;-0.01;79.57
65546;BME280;52177;55.968;37.498;2023-02-04T00:49:32;99202.94;;;0.00;79.54
65546;BME280;52177;55.968;37.498;2023-02-04T00:50:04;99203.75;;;0.01;79.47
65546;BME280;52177;55.968;37.498;2023-02-04T00:50:35;99201.97;;;0.01;79.58
65546;BME280;52177;55.968;37.498;2023-02-04T00:51:08;99202.78;;;0.02;79.49
65546;BME280;52177;55.968;37.498;2023-02-04T00:51:39;99201.97;;;0.01;79.42
65546;BME280;52177;55.968;37.498;2023-02-04T00:52:10;99206.38;;;0.01;79.48
65546;BME280;52177;55.968;37.498;2023-02-04T00:52:40;99209.00;;;0.01;79.47
65546;BME280;52177;55.968;37.498;2023-02-04T00:53:10;99207.19;;;0.01;79.51
65546;BME280;52177;55.968;37.498;2023-02-04T00:53:41;99211.63;;;0.01;79.50
65546;BME280;52177;55.968;37.498;2023-02-04T00:54:11;99204.56;;;0.01;79.53
65546;BME280;52177;55.968;37.498;2023-02-04T00:54:43;99207.31;;;-0.01;79.41
65546;BME280;52177;55.968;37.498;2023-02-04T00:55:14;99202.06;;;-0.01;79.40
65546;BME280;52177;55.968;37.498;2023-02-04T00:55:46;99215.31;;;-0.02;79.48
65546;BME280;52177;55.968;37.498;2023-02-04T00:56:16;99212.69;;;-0.02;79.47
65546;BME280;52177;55.968;37.498;2023-02-04T00:56:46;99216.13;;;-0.02;79.50
65546;BME280;52177;55.968;37.498;2023-02-04T00:57:17;99213.53;;;-0.02;79.40
65546;BME280;52177;55.968;37.498;2023-02-04T00:57:48;99216.97;;;-0.01;79.51
65546;BME280;52177;55.968;37.498;2023-02-04T00:58:18;99207.31;;;-0.01;79.56
65546;BME280;52177;55.968;37.498;2023-02-04T00:58:48;99219.47;;;0.01;79.47
65546;BME280;52177;55.968;37.498;2023-02-04T00:59:19;99212.34;;;0.03;79.40
65546;BME280;52177;55.968;37.498;2023-02-04T00:59:49;99212.44;;;0.01;79.39
65546;BME280;52177;55.968;37.498;2023-02-04T01:00:20;99210.66;;;0.02;79.40
65546;BME280;52177;55.968;37.498;2023-02-04T01:00:50;99211.63;;;0.01;79.32
65546;BME280;52177;55.968;37.498;2023-02-04T01:01:20;99211.72;;;-0.01;79.36
65546;BME280;52177;55.968;37.498;2023-02-04T01:01:50;99211.72;;;-0.01;79.42
65546;BME280;52177;55.968;37.498;2023-02-04T01:02:21;99205.66;;;-0.02;79.36
65546;BME280;52177;55.968;37.498;2023-02-04T01:02:51;99208.28;;;-0.02;79.43
65546;BME280;52177;55.968;37.498;2023-02-04T01:03:21;99212.69;;;-0.02;79.32
65546;BME280;52177;55.968;37.498;2023-02-04T01:03:52;99207.44;;;-0.02;79.33
65546;BME280;52177;55.968;37.498;2023-02-04T01:04:22;99210.06;;;-0.02;79.36
65546;BME280;52177;55.968;37.498;2023-02-04T01:04:53;99212.69;;;-0.02;79.53
65546;BME280;52177;55.968;37.498;2023-02-04T01:05:23;99211.72;;;-0.01;79.40
65546;BME280;52177;55.968;37.498;2023-02-04T01:05:53;99207.31;;;-0.01;79.45
65546;BME280;52177;55.968;37.498;2023-02-04T01:06:24;99212.56;;;-0.01;79.49
65546;BME280;52177;55.968;37.498;2023-02-04T01:06:54;99211.72;;;-0.01;79.51
65546;BME280;52177;55.968;37.498;2023-02-04T01:07:25;99216.03;;;0.00;79.64
65546;BME280;52177;55.968;37.498;2023-02-04T01:07:55;99216.84;;;0.01;79.61
65546;BME280;52177;55.968;37.498;2023-02-04T01:08:25;99206.38;;;0.01;79.52
65546;BME280;52177;55.968;37.498;2023-02-04T01:08:55;99211.63;;;0.01;79.58
65546;BME280;52177;55.968;37.498;2023-02-04T01:09:26;99215.06;;;0.01;79.54
65546;BME280;52177;55.968;37.498;2023-02-04T01:09:56;99215.88;;;0.02;79.59
65546;BME280;52177;55.968;37.498;2023-02-04T01:10:27;99208.03;;;0.02;79.35
65546;BME280;52177;55.968;37.498;2023-02-04T01:10:58;99215.78;;;0.03;79.45
65546;BME280;52177;55.968;37.498;2023-02-04T01:11:29;99214.94;;;0.03;79.49
65546;BME280;52177;55.968;37.498;2023-02-04T01:11:59;99212.34;;;0.03;79.55
65546;BME280;52177;55.968;37.498;2023-02-04T01:12:30;99215.78;;;0.03;79.38
65546;BME280;52177;55.968;37.498;2023-02-04T01:13:00;99217.56;;;0.03;79.45
65546;BME280;52177;55.968;37.498;2023-02-04T01:13:31;99221.03;;;0.03;79.51
65546;BME280;52177;55.968;37.498;2023-02-04T01:14:01;99225.44;;;0.03;79.47
65546;BME280;52177;55.968;37.498;2023-02-04T01:14:31;99217.56;;;0.03;79.41
65546;BME280;52177;55.968;37.498;2023-02-04T01:15:02;99222.66;;;0.04;79.42
65546;BME280;52177;55.968;37.498;2023-02-04T01:15:34;99218.25;;;0.05;79.45
65546;BME280;52177;55.968;37.498;2023-02-04T01:16:04;99225.28;;;0.04;79.46
65546;BME280;52177;55.968;37.498;2023-02-04T01:16:35;99221.84;;;0.04;79.45
65546;BME280;52177;55.968;37.498;2023-02-04T01:17:05;99221.84;;;0.04;79.56
65546;BME280;52177;55.968;37.498;2023-02-04T01:17:36;99221.72;;;0.05;79.44
65546;BME280;52177;55.968;37.498;2023-02-04T01:18:06;99219.22;;;0.04;79.57
65546;BME280;52177;55.968;37.498;2023-02-04T01:18:37;99226.13;;;0.05;79.53
65546;BME280;52177;55.968;37.498;2023-02-04T01:19:07;99224.47;;;0.04;79.41
65546;BME280;52177;55.968;37.498;2023-02-04T01:19:37;99214.94;;;0.03;79.58
65546;BME280;52177;55.968;37.498;2023-02-04T01:20:09;99217.56;;;0.03;79.50
65546;BME280;52177;55.968;37.498;2023-02-04T01:20:39;99213.41;;;0.00;79.56
65546;BME280;52177;55.968;37.498;2023-02-04T01:21:10;99215.16;;;-0.01;79.46
65546;BME280;52177;55.968;37.498;2023-02-04T01:21:40;99215.31;;;-0.02;79.53
65546;BME280;52177;55.968;37.498;2023-02-04T01:22:10;99214.47;;;-0.03;79.50
65546;BME280;52177;55.968;37.498;2023-02-04T01:22:41;99220.56;;;-0.02;79.73
65546;BME280;52177;55.968;37.498;2023-02-04T01:23:11;99221.38;;;-0.02;79.70
65546;BME280;52177;55.968;37.498;2023-02-04T01:23:41;99219.59;;;-0.01;79.87
65546;BME280;52177;55.968;37.498;2023-02-04T01:24:12;99218.75;;;-0.02;79.80
65546;BME280;52177;55.968;37.498;2023-02-04T01:24:42;99217.78;;;-0.01;79.79
65546;BME280;52177;55.968;37.498;2023-02-04T01:25:12;99216.03;;;0.00;79.75
65546;BME280;52177;55.968;37.498;2023-02-04T01:25:43;99221.28;;;0.00;79.78
65546;BME280;52177;55.968;37.498;2023-02-04T01:26:13;99219.47;;;0.01;79.74
65546;BME280;52177;55.968;37.498;2023-02-04T01:26:43;99222.09;;;0.01;79.72
65546;BME280;52177;55.968;37.498;2023-02-04T01:27:14;99223.75;;;0.02;79.62
65546;BME280;52177;55.968;37.498;2023-02-04T01:27:44;99218.66;;;0.00;79.62
65546;BME280;52177;55.968;37.498;2023-02-04T01:28:15;99229.13;;;0.00;79.68
65546;BME280;52177;55.968;37.498;2023-02-04T01:28:45;99217.78;;;-0.01;79.78
65546;BME280;52177;55.968;37.498;2023-02-04T01:29:16;99223.03;;;-0.01;79.71
65546;BME280;52177;55.968;37.498;2023-02-04T01:29:47;99223.03;;;-0.01;79.79
65546;BME280;52177;55.968;37.498;2023-02-04T01:30:17;99221.28;;;0.00;79.70
65546;BME280;52177;55.968;37.498;2023-02-04T01:30:47;99220.41;;;-0.01;79.58
65546;BME280;52177;55.968;37.498;2023-02-04T01:31:18;99231.63;;;0.02;79.67
65546;BME280;52177;55.968;37.498;2023-02-04T01:31:48;99229.97;;;0.01;79.65
65546;BME280;52177;55.968;37.498;2023-02-04T01:32:18;99213.28;;;0.02;79.67
65546;BME280;52177;55.968;37.498;2023-02-04T01:32:49;99228.06;;;0.03;79.57
65546;BME280;52177;55.968;37.498;2023-02-04T01:33:19;99219.34;;;0.02;79.62
65546;BME280;52177;55.968;37.498;2023-02-04T01:33:49;99229.81;;;0.02;79.70
65546;BME280;52177;55.968;37.498;2023-02-04T01:34:20;99228.06;;;0.03;79.64
65546;BME280;52177;55.968;37.498;2023-02-04T01:34:50;99226.25;;;0.03;79.51
65546;BME280;52177;55.968;37.498;2023-02-04T01:35:21;99225.44;;;0.03;79.54
65546;BME280;52177;55.968;37.498;2023-02-04T01:35:51;99223.63;;;0.03;79.62
65546;BME280;52177;55.968;37.498;2023-02-04T01:36:21;99225.44;;;0.03;79.65
65546;BME280;52177;55.968;37.498;2023-02-04T01:36:52;99224.47;;;0.04;79.64
65546;BME280;52177;55.968;37.498;2023-02-04T01:37:23;99223.63;;;0.03;79.64
65546;BME280;52177;55.968;37.498;2023-02-04T01:37:53;99227.09;;;0.04;79.66
65546;BME280;52177;55.968;37.498;2023-02-04T01:38:23;99223.63;;;0.03;79.56
65546;BME280;52177;55.968;37.498;2023-02-04T01:38:54;99227.09;;;0.04;79.58
65546;BME280;52177;55.968;37.498;2023-02-04T01:39:24;99229.59;;;0.05;79.55
65546;BME280;52177;55.968;37.498;2023-02-04T01:39:54;99228.75;;;0.05;79.40
65546;BME280;52177;55.968;37.498;2023-02-04T01:40:25;99228.75;;;0.05;79.53
65546;BME280;52177;55.968;37.498;2023-02-04T01:40:55;99233.97;;;0.05;79.54
65546;BME280;52177;55.968;37.498;2023-02-04T01:41:27;99225.19;;;0.06;79.47
65546;BME280;52177;55.968;37.498;2023-02-04T01:41:57;99227.91;;;0.04;79.48
65546;BME280;52177;55.968;37.498;2023-02-04T01:42:30;99229.69;;;0.04;79.47
65546;BME280;52177;55.968;37.498;2023-02-04T01:43:00;99229.81;;;0.02;79.54
65546;BME280;52177;55.968;37.498;2023-02-04T01:43:31;99231.63;;;0.02;79.61
65546;BME280;52177;55.968;37.498;2023-02-04T01:44:02;99233.28;;;0.03;79.53
65546;BME280;52177;55.968;37.498;2023-02-04T01:44:32;99234.13;;;0.03;79.63
65546;BME280;52177;55.968;37.498;2023-02-04T01:45:03;99235.91;;;0.03;79.69
65546;BME280;52177;55.968;37.498;2023-02-04T01:45:35;99229.81;;;0.02;79.57
65546;BME280;52177;55.968;37.498;2023-02-04T01:46:06;99232.44;;;0.02;79.54
65546;BME280;52177;55.968;37.498;2023-02-04T01:46:36;99236.75;;;0.03;79.56
65546;BME280;52177;55.968;37.498;2023-02-04T01:47:08;99229.81;;;0.02;79.57
65546;BME280;52177;55.968;37.498;2023-02-04T01:47:39;99234.94;;;0.04;79.59
65546;BME280;52177;55.968;37.498;2023-02-04T01:48:10;99238.53;;;0.03;79.58
65546;BME280;52177;55.968;37.498;2023-02-04T01:48:42;99235.91;;;0.03;79.55
65546;BME280;52177;55.968;37.498;2023-02-04T01:49:12;99241.00;;;0.04;79.53
65546;BME280;52177;55.968;37.498;2023-02-04T01:49:43;99237.56;;;0.04;79.50
65546;BME280;52177;55.968;37.498;2023-02-04T01:50:15;99236.59;;;0.05;79.51
65546;BME280;52177;55.968;37.498;2023-02-04T01:50:51;99243.63;;;0.04;79.37
65546;BME280;52177;55.968;37.498;2023-02-04T01:51:25;99242.81;;;0.04;79.41
65546;BME280;52177;55.968;37.498;2023-02-04T01:51:57;99244.59;;;0.03;79.40
65546;BME280;52177;55.968;37.498;2023-02-04T01:52:32;99245.53;;;0.02;79.40
65546;BME280;52177;55.968;37.498;2023-02-04T01:53:04;99248.28;;;0.01;79.60
65546;BME280;52177;55.968;37.498;2023-02-04T01:53:34;99249.94;;;0.02;79.57
65546;BME280;52177;55.968;37.498;2023-02-04T01:54:09;99243.06;;;0.01;79.66
65546;BME280;52177;55.968;37.498;2023-02-04T01:54:41;99249.94;;;0.02;79.79
65546;BME280;52177;55.968;37.498;2023-02-04T01:55:17;99251.63;;;0.03;79.67
65546;BME280;52177;55.968;37.498;2023-02-04T01:55:49;99253.41;;;0.02;79.65
65546;BME280;52177;55.968;37.498;2023-02-04T01:56:22;99255.09;;;0.03;79.64
65546;BME280;52177;55.968;37.498;2023-02-04T01:56:54;99251.63;;;0.03;79.61
65546;BME280;52177;55.968;37.498;2023-02-04T01:57:25;99254.25;;;0.03;79.64
65546;BME280;52177;55.968;37.498;2023-02-04T01:57:55;99256.03;;;0.02;79.61
65546;BME280;52177;55.968;37.498;2023-02-04T01:58:30;99256.63;;;0.06;79.55
65546;BME280;52177;55.968;37.498;2023-02-04T01:59:01;99255.09;;;0.03;79.46
65546;BME280;52177;55.968;37.498;2023-02-04T01:59:32;99257.81;;;0.02;79.48
65546;BME280;52177;55.968;37.498;2023-02-04T02:00:03;99261.41;;;0.01;79.33
65546;BME280;52177;55.968;37.498;2023-02-04T02:00:35;99256.97;;;0.01;79.38
65546;BME280;52177;55.968;37.498;2023-02-04T02:01:13;99262.22;;;0.01;79.35
65546;BME280;52177;55.968;37.498;2023-02-04T02:01:49;99257.09;;;-0.01;79.41
65546;BME280;52177;55.968;37.498;2023-02-04T02:02:40;99256.28;;;-0.01;79.40
65546;BME280;52177;55.968;37.498;2023-02-04T02:03:10;99267.56;;;-0.01;79.50
65546;BME280;52177;55.968;37.498;2023-02-04T02:03:41;99263.19;;;0.00;79.47
65546;BME280;52177;55.968;37.498;2023-02-04T02:04:19;99264.97;;;-0.01;79.63
65546;BME280;52177;55.968;37.498;2023-02-04T02:04:53;99266.75;;;-0.01;79.30
65546;BME280;52177;55.968;37.498;2023-02-04T02:05:45;99262.47;;;-0.02;79.33
65546;BME280;52177;55.968;37.498;2023-02-04T02:06:16;99265.94;;;-0.02;79.41
65546;BME280;52177;55.968;37.498;2023-02-04T02:06:50;99266.84;;;-0.03;79.40
65546;BME280;52177;55.968;37.498;2023-02-04T02:07:21;99267.00;;;-0.04;79.34
65546;BME280;52177;55.968;37.498;2023-02-04T02:07:54;99259.25;;;-0.06;79.41
65546;BME280;52177;55.968;37.498;2023-02-04T02:08:25;99267.09;;;-0.06;79.40
65546;BME280;52177;55.968;37.498;2023-02-04T02:08:56;99265.31;;;-0.05;79.52
65546;BME280;52177;55.968;37.498;2023-02-04T02:09:28;99264.50;;;-0.06;79.46
65546;BME280;52177;55.968;37.498;2023-02-04T02:10:00;99264.50;;;-0.06;79.51
65546;BME280;52177;55.968;37.498;2023-02-04T02:10:31;99270.56;;;-0.05;79.66
65546;BME280;52177;55.968;37.498;2023-02-04T02:11:02;99268.78;;;-0.05;79.57
65546;BME280;52177;55.968;37.498;2023-02-04T02:11:33;99270.69;;;-0.07;79.34
65546;BME280;52177;55.968;37.498;2023-02-04T02:12:03;99267.09;;;-0.06;79.70
65546;BME280;52177;55.968;37.498;2023-02-04T02:12:33;99268.06;;;-0.07;79.50
65546;BME280;52177;55.968;37.498;2023-02-04T02:13:05;99271.53;;;-0.06;79.55
65546;BME280;52177;55.968;37.498;2023-02-04T02:13:36;99271.53;;;-0.06;79.68
65546;BME280;52177;55.968;37.498;2023-02-04T02:14:06;99268.06;;;-0.07;79.56
65546;BME280;52177;55.968;37.498;2023-02-04T02:14:37;99267.22;;;-0.07;79.65
65546;BME280;52177;55.968;37.498;2023-02-04T02:15:08;99262.94;;;-0.08;79.45
65546;BME280;52177;55.968;37.498;2023-02-04T02:15:39;99268.19;;;-0.08;79.52
65546;BME280;52177;55.968;37.498;2023-02-04T02:16:10;99269.97;;;-0.09;79.52
65546;BME280;52177;55.968;37.498;2023-02-04T02:16:41;99269.97;;;-0.09;79.61
65546;BME280;52177;55.968;37.498;2023-02-04T02:17:11;99269.97;;;-0.09;79.66
65546;BME280;52177;55.968;37.498;2023-02-04T02:17:42;99271.63;;;-0.08;79.68
65546;BME280;52177;55.968;37.498;2023-02-04T02:18:13;99277.84;;;-0.09;79.64
65546;BME280;52177;55.968;37.498;2023-02-04T02:18:43;99267.47;;;-0.10;79.65
65546;BME280;52177;55.968;37.498;2023-02-04T02:19:23;99265.66;;;-0.10;79.71
65546;BME280;52177;55.968;37.498;2023-02-04T02:19:56;99276.16;;;-0.10;79.74
65546;BME280;52177;55.968;37.498;2023-02-04T02:20:27;99273.41;;;-0.08;79.68
65546;BME280;52177;55.968;37.498;2023-02-04T02:20:59;99272.59;;;-0.09;79.66
65546;BME280;52177;55.968;37.498;2023-02-04T02:21:38;99273.41;;;-0.08;79.63
65546;BME280;52177;55.968;37.498;2023-02-04T02:22:14;99277.84;;;-0.09;79.75
65546;BME280;52177;55.968;37.498;2023-02-04T02:23:46;99271.78;;;-0.09;79.70
65546;BME280;52177;55.968;37.498;2023-02-04T02:24:53;99277.13;;;-0.11;79.57
65546;BME280;52177;55.968;37.498;2023-02-04T02:25:24;99271.88;;;-0.11;79.68
65546;BME280;52177;55.968;37.498;2023-02-04T02:25:54;99277.84;;;-0.09;79.68
65546;BME280;52177;55.968;37.498;2023-02-04T02:26:24;99277.13;;;-0.11;79.73
65546;BME280;52177;55.968;37.498;2023-02-04T02:26:59;99279.75;;;-0.11;79.68
65546;BME280;52177;55.968;37.498;2023-02-04T02:27:31;99278.91;;;-0.11;79.70
65546;BME280;52177;55.968;37.498;2023-02-04T02:28:01;99283.19;;;-0.10;79.70
65546;BME280;52177;55.968;37.498;2023-02-04T02:28:34;99283.28;;;-0.12;79.70
65546;BME280;52177;55.968;37.498;2023-02-04T02:29:04;99279.03;;;-0.13;79.74
65546;BME280;52177;55.968;37.498;2023-02-04T02:29:39;99280.81;;;-0.13;79.70
65546;BME280;52177;55.968;37.498;2023-02-04T02:30:11;99285.22;;;-0.14;79.88
65546;BME280;52177;55.968;37.498;2023-02-04T02:30:44;99281.63;;;-0.13;79.88
65546;BME280;52177;55.968;37.498;2023-02-04T02:31:16;99282.72;;;-0.15;79.84
65546;BME280;52177;55.968;37.498;2023-02-04T02:31:48;99286.97;;;-0.14;79.86
65546;BME280;52177;55.968;37.498;2023-02-04T02:32:20;99285.34;;;-0.15;79.97
65546;BME280;52177;55.968;37.498;2023-02-04T02:32:51;99286.06;;;-0.13;79.83
65546;BME280;52177;55.968;37.498;2023-02-04T02:33:21;99285.22;;;-0.14;79.88
65546;BME280;52177;55.968;37.498;2023-02-04T02:33:52;99292.94;;;-0.12;79.71
65546;BME280;52177;55.968;37.498;2023-02-04T02:34:23;99289.59;;;-0.14;79.73
65546;BME280;52177;55.968;37.498;2023-02-04T02:34:54;99290.31;;;-0.12;79.79
65546;BME280;52177;55.968;37.498;2023-02-04T02:35:24;99289.50;;;-0.13;79.72
65546;BME280;52177;55.968;37.498;2023-02-04T02:35:54;99292.13;;;-0.13;79.73
65546;BME280;52177;55.968;37.498;2023-02-04T02:36:25;99291.28;;;-0.13;79.66
65546;BME280;52177;55.968;37.498;2023-02-04T02:36:56;99296.38;;;-0.12;79.78
65546;BME280;52177;55.968;37.498;2023-02-04T02:37:28;99287.72;;;-0.12;79.58
65546;BME280;52177;55.968;37.498;2023-02-04T02:37:59;99292.13;;;-0.13;79.55
65546;BME280;52177;55.968;37.498;2023-02-04T02:38:29;99284.25;;;-0.13;79.65
65546;BME280;52177;55.968;37.498;2023-02-04T02:39:00;99287.72;;;-0.12;79.67
65546;BME280;52177;55.968;37.498;2023-02-04T02:39:30;99291.16;;;-0.12;79.63
65546;BME280;52177;55.968;37.498;2023-02-04T02:40:02;99290.22;;;-0.11;79.64
65546;BME280;52177;55.968;37.498;2023-02-04T02:40:33;99292.84;;;-0.11;79.44
65546;BME280;52177;55.968;37.498;2023-02-04T02:41:04;99289.38;;;-0.11;79.41
65546;BME280;52177;55.968;37.498;2023-02-04T02:41:34;99296.38;;;-0.12;79.39
65546;BME280;52177;55.968;37.498;2023-02-04T02:42:05;99286.06;;;-0.13;79.35
65546;BME280;52177;55.968;37.498;2023-02-04T02:42:36;99288.66;;;-0.13;79.46
65546;BME280;52177;55.968;37.498;2023-02-04T02:43:08;99292.13;;;-0.13;79.53
65546;BME280;52177;55.968;37.498;2023-02-04T02:43:41;99293.09;;;-0.14;79.54
65546;BME280;52177;55.968;37.498;2023-02-04T02:44:12;99299.97;;;-0.13;79.62
65546;BME280;52177;55.968;37.498;2023-02-04T02:44:45;99293.91;;;-0.13;79.54
65546;BME280;52177;55.968;37.498;2023-02-04T02:45:24;99289.59;;;-0.14;79.52